createdAt,value
2019-02-20T00:01:25.810Z,26.17
2019-02-20T00:03:55.442Z,24.27
2019-02-20T00:06:25.159Z,20.73
2019-02-20T00:08:54.890Z,20.23
2019-02-20T00:11:24.521Z,22.73
2019-02-20T00:13:54.175Z,24.47
2019-02-20T00:16:23.946Z,18.77
2019-02-20T00:18:54.218Z,18.57
2019-02-20T00:21:23.877Z,18.97
2019-02-20T00:23:53.521Z,18.10
2019-02-20T00:26:23.173Z,18.20
2019-02-20T00:28:52.789Z,17.30
2019-02-20T00:31:22.428Z,20.53
2019-02-20T00:33:52.039Z,20.53
2019-02-20T00:36:21.647Z,18.87
2019-02-20T00:38:51.244Z,19.33
2019-02-20T00:41:20.839Z,19.30
2019-02-20T00:44:18.232Z,20.03
2019-02-20T00:47:15.794Z,21.73
2019-02-20T00:49:48.359Z,17.83
2019-02-20T00:52:35.461Z,20.17
2019-02-20T00:55:05.210Z,17.17
2019-02-20T00:57:34.765Z,17.87
2019-02-20T01:00:04.529Z,19.00
2019-02-20T01:02:34.151Z,20.93
2019-02-20T01:05:03.838Z,16.50
2019-02-20T01:07:33.778Z,19.50
2019-02-20T01:10:03.409Z,20.10
2019-02-20T01:12:33.002Z,20.17
2019-02-20T01:15:02.561Z,20.33
2019-02-20T01:17:32.325Z,18.30
2019-02-20T01:20:01.926Z,18.47
2019-02-20T01:22:36.241Z,18.97
2019-02-20T01:25:06.005Z,20.83
2019-02-20T01:27:40.311Z,18.40
2019-02-20T01:30:10.047Z,23.03
2019-02-20T01:32:39.679Z,20.40
2019-02-20T01:35:09.537Z,18.40
2019-02-20T01:37:39.233Z,19.80
2019-02-20T01:40:08.871Z,19.20
2019-02-20T01:42:38.457Z,21.80
2019-02-20T01:45:08.557Z,19.33
2019-02-20T01:47:38.124Z,20.13
2019-02-20T01:50:08.201Z,18.73
2019-02-20T01:52:37.876Z,18.40
2019-02-20T01:55:08.020Z,22.60
2019-02-20T01:57:37.666Z,18.37
2019-02-20T02:00:08.121Z,18.77
2019-02-20T02:02:37.699Z,19.50
2019-02-20T02:05:14.790Z,20.50
2019-02-20T02:07:38.915Z,19.70
2019-02-20T02:10:08.685Z,18.90
2019-02-20T02:12:38.257Z,20.13
2019-02-20T02:15:08.271Z,21.67
2019-02-20T02:17:37.886Z,17.77
2019-02-20T02:20:08.363Z,18.27
2019-02-20T02:22:37.969Z,19.03
2019-02-20T02:25:07.650Z,21.37
2019-02-20T02:27:37.215Z,20.10
2019-02-20T02:30:07.142Z,18.63
2019-02-20T02:32:36.788Z,19.07
2019-02-20T02:35:06.493Z,21.63
2019-02-20T02:37:36.128Z,22.67
2019-02-20T02:40:05.881Z,19.33
2019-02-20T02:42:35.522Z,18.90
2019-02-20T02:45:05.328Z,20.37
2019-02-20T02:47:35.003Z,21.70
2019-02-20T02:50:04.739Z,22.70
2019-02-20T02:52:34.419Z,17.87
2019-02-20T02:55:03.990Z,17.87
2019-02-20T02:57:33.670Z,19.03
2019-02-20T03:00:03.340Z,19.40
2019-02-20T03:02:32.925Z,18.00
2019-02-20T03:05:02.503Z,16.37
2019-02-20T03:07:32.199Z,15.00
2019-02-20T03:10:01.795Z,15.57
2019-02-20T03:12:31.397Z,17.07
2019-02-20T03:15:01.066Z,18.23
2019-02-20T03:17:30.628Z,16.53
2019-02-20T03:20:00.450Z,17.93
2019-02-20T03:22:30.152Z,15.73
2019-02-20T03:24:59.759Z,15.63
2019-02-20T03:27:29.387Z,18.33
2019-02-20T03:29:59.081Z,16.10
2019-02-20T03:32:28.661Z,18.70
2019-02-20T03:34:58.369Z,18.37
2019-02-20T03:37:28.049Z,17.90
2019-02-20T03:39:57.582Z,18.40
2019-02-20T03:42:27.195Z,17.20
2019-02-20T03:44:56.830Z,19.27
2019-02-20T03:47:26.434Z,17.67
2019-02-20T03:49:56.053Z,16.47
2019-02-20T03:52:25.671Z,16.07
2019-02-20T03:54:55.333Z,17.50
2019-02-20T03:57:25.063Z,17.53
2019-02-20T03:59:54.820Z,16.97
2019-02-20T04:02:24.369Z,15.80
2019-02-20T04:04:53.964Z,17.73
2019-02-20T04:07:23.598Z,16.80
2019-02-20T04:09:53.197Z,16.47
2019-02-20T04:12:22.856Z,20.50
2019-02-20T04:14:52.546Z,17.17
2019-02-20T04:17:22.210Z,16.13
2019-02-20T04:19:51.811Z,21.40
2019-02-20T04:22:21.993Z,16.83
2019-02-20T04:24:51.600Z,17.93
2019-02-20T04:27:21.138Z,18.10
2019-02-20T04:29:50.783Z,20.00
2019-02-20T04:32:20.342Z,18.53
2019-02-20T04:34:49.874Z,21.73
2019-02-20T04:37:19.445Z,17.70
2019-02-20T04:39:49.049Z,18.77
2019-02-20T04:42:18.666Z,20.83
2019-02-20T04:44:48.285Z,18.93
2019-02-20T04:47:17.923Z,20.03
2019-02-20T04:49:47.505Z,20.57
2019-02-20T04:52:17.152Z,20.20
2019-02-20T04:54:46.720Z,17.97
2019-02-20T04:57:16.325Z,21.97
2019-02-20T04:59:46.045Z,19.07
2019-02-20T05:02:15.610Z,19.70
2019-02-20T05:04:45.239Z,20.70
2019-02-20T05:07:14.890Z,20.43
2019-02-20T05:09:44.503Z,18.30
2019-02-20T05:12:14.067Z,16.77
2019-02-20T05:14:44.791Z,18.33
2019-02-20T05:17:14.385Z,16.37
2019-02-20T05:19:44.026Z,16.03
2019-02-20T05:22:13.700Z,20.37
2019-02-20T05:24:43.268Z,18.40
2019-02-20T05:27:12.850Z,18.13
2019-02-20T05:29:42.495Z,18.40
2019-02-20T05:32:12.070Z,16.03
2019-02-20T05:34:41.678Z,18.57
2019-02-20T05:37:11.347Z,17.90
2019-02-20T05:39:40.969Z,18.43
2019-02-20T05:42:10.620Z,20.97
2019-02-20T05:44:40.502Z,17.27
2019-02-20T05:47:12.224Z,16.87
2019-02-20T05:49:41.937Z,19.60
2019-02-20T05:52:12.429Z,17.03
2019-02-20T05:54:42.076Z,15.30
2019-02-20T05:57:18.282Z,18.80
2019-02-20T05:59:47.578Z,13.67
2019-02-20T06:02:19.059Z,15.13
2019-02-20T06:04:51.418Z,15.83
2019-02-20T06:07:21.202Z,18.47
2019-02-20T06:09:55.952Z,16.77
2019-02-20T06:12:25.603Z,15.80
2019-02-20T06:14:57.548Z,18.43
2019-02-20T06:17:27.159Z,15.80
2019-02-20T06:19:56.785Z,17.17
2019-02-20T06:22:26.405Z,18.53
2019-02-20T06:25:03.395Z,18.03
2019-02-20T06:27:33.072Z,17.73
2019-02-20T06:30:02.747Z,20.30
2019-02-20T06:32:32.442Z,17.20
2019-02-20T06:35:02.114Z,17.20
2019-02-20T06:37:34.512Z,15.63
2019-02-20T06:40:04.830Z,18.73
2019-02-20T06:42:35.976Z,19.67
2019-02-20T06:45:06.287Z,18.23
2019-02-20T06:47:44.381Z,19.43
2019-02-20T06:50:14.084Z,15.07
2019-02-20T06:52:45.127Z,17.40
2019-02-20T06:55:14.803Z,19.63
2019-02-20T06:57:44.379Z,19.27
2019-02-20T07:00:14.358Z,20.23
2019-02-20T07:02:43.942Z,20.47
2019-02-20T07:06:06.683Z,21.23
2019-02-20T07:09:05.400Z,22.33
2019-02-20T07:11:50.987Z,19.60
2019-02-20T07:14:55.736Z,19.00
2019-02-20T07:18:09.352Z,18.97
2019-02-20T07:21:26.642Z,19.00
2019-02-20T07:24:32.765Z,32.23
2019-02-20T07:27:26.433Z,22.40
2019-02-20T07:30:08.758Z,20.03
2019-02-20T07:32:38.413Z,20.80
2019-02-20T07:35:10.194Z,21.37
2019-02-20T07:37:39.742Z,19.87
2019-02-20T07:40:13.430Z,22.30
2019-02-20T07:42:43.022Z,22.07
2019-02-20T07:45:14.596Z,22.47
2019-02-20T07:47:44.237Z,22.90
2019-02-20T07:50:18.877Z,21.87
2019-02-20T07:52:49.072Z,21.87
2019-02-20T07:55:18.671Z,22.43
2019-02-20T07:57:48.267Z,29.87
2019-02-20T08:00:17.933Z,23.90
2019-02-20T08:02:47.497Z,23.77
2019-02-20T08:05:17.053Z,22.20
2019-02-20T08:07:46.698Z,23.40
2019-02-20T08:10:16.318Z,21.70
2019-02-20T08:12:45.912Z,20.93
2019-02-20T08:15:15.613Z,22.33
2019-02-20T08:17:45.235Z,19.90
2019-02-20T08:20:14.831Z,22.63
2019-02-20T08:22:44.470Z,21.70
2019-02-20T08:25:22.632Z,20.60
2019-02-20T08:27:45.222Z,20.70
2019-02-20T08:30:15.852Z,19.70
2019-02-20T08:32:45.437Z,20.97
2019-02-20T08:35:15.070Z,19.77
2019-02-20T08:37:44.632Z,19.80
2019-02-20T08:40:15.624Z,18.23
2019-02-20T08:42:45.196Z,22.30
2019-02-20T08:45:14.841Z,28.57
2019-02-20T08:47:44.400Z,22.60
2019-02-20T08:50:14.193Z,17.87
2019-02-20T08:52:43.888Z,16.03
2019-02-20T08:55:13.475Z,15.90
2019-02-20T08:57:43.114Z,16.27
2019-02-20T09:00:13.990Z,19.67
2019-02-20T09:02:43.574Z,18.50
2019-02-20T09:05:13.171Z,14.07
2019-02-20T09:07:42.847Z,16.03
2019-02-20T09:10:12.487Z,14.97
2019-02-20T09:12:42.089Z,13.83
2019-02-20T09:15:11.744Z,17.27
2019-02-20T09:17:41.334Z,16.13
2019-02-20T09:20:11.334Z,13.20
2019-02-20T09:22:40.887Z,15.20
2019-02-20T09:25:19.254Z,14.23
2019-02-20T09:27:42.152Z,12.53
2019-02-20T09:30:13.399Z,14.83
2019-02-20T09:32:42.978Z,12.83
2019-02-20T09:35:12.608Z,15.70
2019-02-20T09:37:42.202Z,11.60
2019-02-20T09:40:14.187Z,14.13
2019-02-20T09:42:45.384Z,14.50
2019-02-20T09:45:14.989Z,11.87
2019-02-20T09:47:44.626Z,10.63
2019-02-20T09:50:14.337Z,13.97
2019-02-20T09:52:51.931Z,11.33
2019-02-20T09:55:15.162Z,12.00
2019-02-20T09:57:44.844Z,12.27
2019-02-20T10:00:15.207Z,11.57
2019-02-20T10:02:44.809Z,13.37
2019-02-20T10:05:14.469Z,12.17
2019-02-20T10:07:44.082Z,10.50
2019-02-20T10:10:13.719Z,10.20
2019-02-20T10:12:43.302Z,11.30
2019-02-20T10:15:13.586Z,10.80
2019-02-20T10:17:43.173Z,11.33
2019-02-20T10:20:12.834Z,12.03
2019-02-20T10:22:42.467Z,11.13
2019-02-20T10:25:12.546Z,13.60
2019-02-20T10:27:42.197Z,10.93
2019-02-20T10:30:14.357Z,12.00
2019-02-20T10:32:43.883Z,8.63
2019-02-20T10:35:13.665Z,10.43
2019-02-20T10:37:43.234Z,12.70
2019-02-20T10:40:13.053Z,11.63
2019-02-20T10:42:42.685Z,10.90
2019-02-20T10:45:12.302Z,13.97
2019-02-20T10:47:41.901Z,9.87
2019-02-20T10:50:11.650Z,15.00
2019-02-20T10:52:41.267Z,11.53
2019-02-20T10:55:11.359Z,9.23
2019-02-20T10:57:40.981Z,10.23
2019-02-20T11:00:24.325Z,9.83
2019-02-20T11:02:54.198Z,9.57
2019-02-20T11:05:23.776Z,11.43
2019-02-20T11:07:53.408Z,9.70
2019-02-20T11:10:24.141Z,8.03
2019-02-20T11:12:53.880Z,8.13
2019-02-20T11:15:23.562Z,9.03
2019-02-20T11:17:53.085Z,10.07
2019-02-20T11:20:22.610Z,7.83
2019-02-20T11:22:52.195Z,7.67
2019-02-20T11:25:21.849Z,11.57
2019-02-20T11:27:51.670Z,10.13
2019-02-20T11:30:21.413Z,9.37
2019-02-20T11:32:51.031Z,10.13
2019-02-20T11:35:21.556Z,9.10
2019-02-20T11:37:51.201Z,9.77
2019-02-20T11:40:20.886Z,9.97
2019-02-20T11:42:50.565Z,10.03
2019-02-20T11:45:20.166Z,12.27
2019-02-20T11:47:49.791Z,8.07
2019-02-20T11:50:19.339Z,10.70
2019-02-20T11:52:48.959Z,7.73
2019-02-20T11:55:18.552Z,12.30
2019-02-20T11:57:48.165Z,9.20
2019-02-20T12:00:17.792Z,10.90
2019-02-20T12:02:47.309Z,9.53
2019-02-20T12:05:16.844Z,9.37
2019-02-20T12:07:46.437Z,10.17
2019-02-20T12:10:17.022Z,8.23
2019-02-20T12:12:46.616Z,10.73
2019-02-20T12:15:16.410Z,8.97
2019-02-20T12:17:46.011Z,12.20
2019-02-20T12:20:15.601Z,12.37
2019-02-20T12:22:45.200Z,10.20
2019-02-20T12:25:14.744Z,6.33
2019-02-20T12:27:44.481Z,8.23
2019-02-20T12:30:14.205Z,11.10
2019-02-20T12:32:43.941Z,7.03
2019-02-20T12:35:13.657Z,8.90
2019-02-20T12:37:43.327Z,8.33
2019-02-20T12:40:12.923Z,7.87
2019-02-20T12:42:42.521Z,7.73
2019-02-20T12:45:12.305Z,12.30
2019-02-20T12:47:41.887Z,9.43
2019-02-20T12:50:11.461Z,14.57
2019-02-20T12:52:42.372Z,8.67
2019-02-20T12:55:13.057Z,9.20
2019-02-20T12:57:42.560Z,8.67
2019-02-20T13:00:12.770Z,7.77
2019-02-20T13:02:42.285Z,7.80
2019-02-20T13:05:12.041Z,8.87
2019-02-20T13:07:41.681Z,5.87
2019-02-20T13:10:11.531Z,6.13
2019-02-20T13:12:41.137Z,9.43
2019-02-20T13:15:11.037Z,5.43
2019-02-20T13:17:40.670Z,10.07
2019-02-20T13:20:10.431Z,7.33
2019-02-20T13:22:40.033Z,5.33
2019-02-20T13:25:09.663Z,8.03
2019-02-20T13:27:40.224Z,6.73
2019-02-20T13:30:10.498Z,7.97
2019-02-20T13:32:40.126Z,6.30
2019-02-20T13:35:09.733Z,8.87
2019-02-20T13:37:39.279Z,9.37
2019-02-20T13:40:09.295Z,8.20
2019-02-20T13:42:38.846Z,9.70
2019-02-20T13:45:08.577Z,9.90
2019-02-20T13:47:38.165Z,9.43
2019-02-20T13:50:08.509Z,10.33
2019-02-20T13:52:38.111Z,10.57
2019-02-20T13:55:07.839Z,9.17
2019-02-20T13:57:37.465Z,8.90
2019-02-20T14:00:07.768Z,7.63
2019-02-20T14:02:37.391Z,12.27
2019-02-20T14:05:07.550Z,9.97
2019-02-20T14:07:37.230Z,10.17
2019-02-20T14:10:10.085Z,8.27
2019-02-20T14:12:39.624Z,9.23
2019-02-20T14:15:10.756Z,10.97
2019-02-20T14:17:40.347Z,9.23
2019-02-20T14:20:10.520Z,10.70
2019-02-20T14:22:40.580Z,10.30
2019-02-20T14:25:10.187Z,12.80
2019-02-20T14:27:39.911Z,7.80
2019-02-20T14:30:09.718Z,9.23
2019-02-20T14:32:39.347Z,11.67
2019-02-20T14:35:10.583Z,10.93
2019-02-20T14:37:40.602Z,12.60
2019-02-20T14:40:10.208Z,10.93
2019-02-20T14:42:39.848Z,10.80
2019-02-20T14:45:13.989Z,10.17
2019-02-20T14:47:53.104Z,10.93
2019-02-20T14:50:42.399Z,13.80
2019-02-20T14:53:11.686Z,11.80
2019-02-20T14:55:41.299Z,10.90
2019-02-20T14:58:10.871Z,13.03
2019-02-20T15:00:40.912Z,12.40
2019-02-20T15:03:10.512Z,13.57
2019-02-20T15:05:40.157Z,10.80
2019-02-20T15:08:09.783Z,10.50
2019-02-20T15:10:39.493Z,8.77
2019-02-20T15:13:09.073Z,12.97
2019-02-20T15:15:39.045Z,16.93
2019-02-20T15:18:08.730Z,13.23
2019-02-20T15:20:38.362Z,12.13
2019-02-20T15:23:07.992Z,11.50
2019-02-20T15:25:37.649Z,11.93
2019-02-20T15:28:07.254Z,11.80
2019-02-20T15:30:37.242Z,11.73
2019-02-20T15:33:06.851Z,12.37
2019-02-20T15:35:36.429Z,15.00
2019-02-20T15:38:06.033Z,14.87
2019-02-20T15:40:35.601Z,14.17
2019-02-20T15:43:05.297Z,9.30
2019-02-20T15:45:35.091Z,10.93
2019-02-20T15:48:04.677Z,10.30
2019-02-20T15:50:34.322Z,10.00
2019-02-20T15:53:03.962Z,9.73
2019-02-20T15:55:33.642Z,13.17
2019-02-20T15:58:03.267Z,16.77
2019-02-20T16:00:32.808Z,15.53
2019-02-20T16:03:02.500Z,15.07
2019-02-20T16:05:32.225Z,19.23
2019-02-20T16:08:04.378Z,14.63
2019-02-20T16:10:34.858Z,13.17
2019-02-20T16:13:04.629Z,19.37
2019-02-20T16:15:34.165Z,17.97
2019-02-20T16:18:03.731Z,15.13
2019-02-20T16:20:33.673Z,14.57
2019-02-20T16:23:03.386Z,12.90
2019-02-20T16:25:32.978Z,15.90
2019-02-20T16:28:02.564Z,17.03
2019-02-20T16:30:32.155Z,17.10
2019-02-20T16:33:01.810Z,16.13
2019-02-20T16:35:31.475Z,17.17
2019-02-20T16:38:01.125Z,22.63
2019-02-20T16:40:30.769Z,25.90
2019-02-20T16:43:00.389Z,19.57
2019-02-20T16:45:29.977Z,19.13
2019-02-20T16:47:59.698Z,19.23
2019-02-20T16:50:29.289Z,17.83
2019-02-20T16:52:58.924Z,18.83
2019-02-20T16:55:28.611Z,22.57
2019-02-20T16:57:58.315Z,29.57
2019-02-20T17:00:27.947Z,22.53
2019-02-20T17:02:57.634Z,20.30
2019-02-20T17:05:27.521Z,21.57
2019-02-20T17:07:57.146Z,21.30
2019-02-20T17:10:26.777Z,17.17
2019-02-20T17:12:56.431Z,17.53
2019-02-20T17:15:26.118Z,18.20
2019-02-20T17:17:55.759Z,16.27
2019-02-20T17:20:25.446Z,19.93
2019-02-20T17:22:55.092Z,14.87
2019-02-20T17:25:25.084Z,18.57
2019-02-20T17:28:05.712Z,19.10
2019-02-20T17:30:33.379Z,15.97
2019-02-20T17:33:03.042Z,16.43
2019-02-20T17:35:32.707Z,22.47
2019-02-20T17:38:02.377Z,22.27
2019-02-20T17:40:31.973Z,20.43
2019-02-20T17:43:01.572Z,21.03
2019-02-20T17:45:34.932Z,26.63
2019-02-20T17:48:04.494Z,22.43
2019-02-20T17:50:34.123Z,20.23
2019-02-20T17:53:03.809Z,16.93
2019-02-20T17:55:33.447Z,23.60
2019-02-20T17:58:03.468Z,21.80
2019-02-20T18:00:33.264Z,24.70
2019-02-20T18:03:03.270Z,22.77
2019-02-20T18:05:32.843Z,24.17
2019-02-20T18:08:02.535Z,26.23
2019-02-20T18:10:32.187Z,27.20
2019-02-20T18:13:01.932Z,23.77
2019-02-20T18:15:31.622Z,32.67
2019-02-20T18:18:01.327Z,42.57
2019-02-20T18:20:31.031Z,53.37
2019-02-20T18:23:00.665Z,30.47
2019-02-20T18:25:30.190Z,35.10
2019-02-20T18:28:00.163Z,26.43
2019-02-20T18:30:31.709Z,23.67
2019-02-20T18:33:01.276Z,25.97
2019-02-20T18:35:30.873Z,29.57
2019-02-20T18:38:00.659Z,24.07
2019-02-20T18:40:30.301Z,24.00
2019-02-20T18:42:59.880Z,26.00
2019-02-20T18:45:29.610Z,26.43
2019-02-20T18:47:59.248Z,24.27
2019-02-20T18:50:28.980Z,28.97
2019-02-20T18:52:58.650Z,29.40
2019-02-20T18:55:29.567Z,25.37
2019-02-20T18:57:59.879Z,25.67
2019-02-20T19:00:29.623Z,25.93
2019-02-20T19:03:05.481Z,25.37
2019-02-20T19:05:35.231Z,23.13
2019-02-20T19:08:52.062Z,27.10
2019-02-20T19:11:44.113Z,21.67
2019-02-20T19:14:42.042Z,23.27
2019-02-20T19:17:43.756Z,28.77
2019-02-20T19:20:37.625Z,24.73
2019-02-20T19:24:06.254Z,23.53
2019-02-20T19:27:06.984Z,23.43
2019-02-20T19:30:02.802Z,26.43
2019-02-20T19:32:59.374Z,25.33
2019-02-20T19:36:09.717Z,24.17
2019-02-20T19:39:12.936Z,24.87
2019-02-20T19:42:36.068Z,26.27
2019-02-20T19:45:49.121Z,23.03
2019-02-20T19:48:58.815Z,24.07
2019-02-20T19:51:45.825Z,22.07
2019-02-20T19:54:29.205Z,21.83
2019-02-20T19:57:48.185Z,23.67
2019-02-20T20:00:44.017Z,22.47
2019-02-20T20:03:30.351Z,23.00
2019-02-20T20:06:26.678Z,21.00
2019-02-20T20:09:51.198Z,24.93
2019-02-20T20:13:17.137Z,25.60
2019-02-20T20:16:45.706Z,23.20
2019-02-20T20:19:40.400Z,23.80
2019-02-20T20:22:45.671Z,23.77
2019-02-20T20:25:45.176Z,28.67
2019-02-20T20:28:35.399Z,29.10
2019-02-20T20:31:38.624Z,29.87
2019-02-20T20:34:45.756Z,24.90
2019-02-20T20:37:33.081Z,27.43
2019-02-20T20:40:31.990Z,24.47
2019-02-20T20:43:20.205Z,26.17
2019-02-20T20:46:20.366Z,20.77
2019-02-20T20:49:52.190Z,27.47
2019-02-20T20:52:58.749Z,24.37
2019-02-20T20:55:45.439Z,23.77
2019-02-20T20:58:45.561Z,24.23
2019-02-20T21:01:52.156Z,21.43
2019-02-20T21:05:06.083Z,24.27
2019-02-20T21:07:53.705Z,21.63
2019-02-20T21:11:02.723Z,24.53
2019-02-20T21:14:21.475Z,24.07
2019-02-20T21:17:38.140Z,24.90
2019-02-20T21:20:53.448Z,23.57
2019-02-20T21:24:07.149Z,24.67
2019-02-20T21:26:56.123Z,29.53
2019-02-20T21:30:00.627Z,27.73
2019-02-20T21:33:00.061Z,23.93
2019-02-20T21:36:06.892Z,27.87
2019-02-20T21:39:14.783Z,18.83
2019-02-20T21:41:52.473Z,25.60
2019-02-20T21:45:27.258Z,26.37
2019-02-20T21:48:40.562Z,24.27
2019-02-20T21:51:41.117Z,23.77
2019-02-20T21:54:33.336Z,22.53
2019-02-20T21:57:40.306Z,20.80
2019-02-20T22:00:34.762Z,21.13
2019-02-20T22:03:39.495Z,22.27
2019-02-20T22:06:37.249Z,22.73
2019-02-20T22:09:34.441Z,20.47
2019-02-20T22:12:51.186Z,19.23
2019-02-20T22:15:52.386Z,18.40
2019-02-20T22:18:51.557Z,16.93
2019-02-20T22:22:32.793Z,19.60
2019-02-20T22:25:44.407Z,18.33
2019-02-20T22:28:55.362Z,21.07
2019-02-20T22:32:01.753Z,18.57
2019-02-20T22:35:00.024Z,21.47
2019-02-20T22:38:09.451Z,18.77
2019-02-20T22:41:18.953Z,18.70
2019-02-20T22:44:26.065Z,20.17
2019-02-20T22:47:33.849Z,17.63
2019-02-20T22:50:50.326Z,20.43
2019-02-20T22:53:45.165Z,22.03
2019-02-20T22:56:57.813Z,19.23
2019-02-20T23:00:02.304Z,22.97
2019-02-20T23:02:59.069Z,20.63
2019-02-20T23:06:11.165Z,18.07
2019-02-20T23:09:33.223Z,24.57
2019-02-20T23:12:15.270Z,16.50
2019-02-20T23:14:57.986Z,16.93
2019-02-20T23:17:27.817Z,18.07
2019-02-20T23:19:57.640Z,15.73
2019-02-20T23:22:27.351Z,15.43
2019-02-20T23:24:57.336Z,19.20
2019-02-20T23:27:28.107Z,17.80
2019-02-20T23:29:57.985Z,18.03
2019-02-20T23:32:31.238Z,21.23
2019-02-20T23:35:02.446Z,18.87
2019-02-20T23:37:32.025Z,20.10
2019-02-20T23:40:01.671Z,17.37
2019-02-20T23:42:31.409Z,17.67
2019-02-20T23:45:01.035Z,23.87
2019-02-20T23:47:32.148Z,19.80
2019-02-20T23:50:01.750Z,18.93
2019-02-20T23:52:31.355Z,23.93
2019-02-20T23:55:00.966Z,15.90
2019-02-20T23:57:30.537Z,18.33
